Time;durP1;ratioP1;P1;durP2;ratioP2;P2;SDS_P1;SDS_P2;PMS_P1;PMS_P2;Temp;Humidity;BMP_temperature;BMP_pressure;BME280_temperature;BME280_humidity;BME280_pressure;Samples;Min_cycle;Max_cycle;Signal;HPM_P1;HPM_P2
2024/03/18 00:01:44;;;;;;;2.30;1.08;;;11.30;18.00;;;;;;5134746;28;21103;-58
2024/03/18 00:04:11;;;;;;;2.00;1.20;;;11.20;16.70;;;;;;5135366;28;20430;-58
2024/03/18 00:06:42;;;;;;;1.60;1.10;;;11.30;1.00;;;;;;5129362;28;20436;-58
2024/03/18 00:09:09;;;;;;;1.77;1.10;;;11.30;1.00;;;;;;5131476;28;20422;-59
2024/03/18 00:11:37;;;;;;;1.60;1.10;;;11.40;17.80;;;;;;5121249;28;20428;-59
2024/03/18 00:14:04;;;;;;;1.77;0.90;;;11.30;30.40;;;;;;5113949;28;20706;-57
2024/03/18 00:16:33;;;;;;;1.60;1.00;;;11.30;58.30;;;;;;5114879;28;20436;-59
2024/03/18 00:19:03;;;;;;;1.87;1.10;;;11.40;48.00;;;;;;5126422;28;20432;-58
2024/03/18 00:21:30;;;;;;;1.20;1.10;;;11.50;28.00;;;;;;5115551;28;20434;-57
2024/03/18 00:24:07;;;;;;;2.63;1.02;;;11.50;24.80;;;;;;5116355;28;20420;-57
2024/03/18 00:26:42;;;;;;;2.50;1.10;;;11.50;23.10;;;;;;5129775;28;20800;-59
2024/03/18 00:29:15;;;;;;;1.83;1.10;;;11.40;24.60;;;;;;5134311;28;20468;-57
2024/03/18 00:31:44;;;;;;;2.50;1.08;;;11.40;28.60;;;;;;5123002;28;20415;-58
2024/03/18 00:34:11;;;;;;;1.80;1.00;;;11.40;28.30;;;;;;5130966;28;20441;-58
2024/03/18 00:36:38;;;;;;;3.05;1.00;;;11.50;32.10;;;;;;5123748;27;20836;-58
2024/03/18 00:39:06;;;;;;;1.80;1.00;;;11.50;38.40;;;;;;5138103;27;20430;-58
2024/03/18 00:41:49;;;;;;;2.00;1.10;;;11.70;39.00;;;;;;5127516;27;20521;-57
2024/03/18 00:44:16;;;;;;;3.00;1.00;;;11.90;13.40;;;;;;5138528;27;20462;-56
2024/03/18 00:46:47;;;;;;;1.70;1.20;;;12.00;1.00;;;;;;5136153;27;20867;-58
2024/03/18 00:49:15;;;;;;;2.75;1.20;;;11.90;1.00;;;;;;5119545;28;20491;-58
2024/03/18 00:51:47;;;;;;;1.95;1.10;;;11.70;1.00;;;;;;5138504;27;20423;-58
2024/03/18 00:57:01;;;;;;;1.60;0.90;;;11.50;26.60;;;;;;5140348;27;20448;-58
2024/03/18 00:59:31;;;;;;;1.70;1.00;;;11.40;52.40;;;;;;5137723;27;20430;-58
2024/03/18 01:02:01;;;;;;;1.80;0.90;;;11.40;57.70;;;;;;5136609;27;20511;-57
2024/03/18 01:04:28;;;;;;;1.42;0.90;;;11.50;53.80;;;;;;5139899;27;20521;-58
2024/03/18 01:07:01;;;;;;;1.30;0.90;;;11.60;49.20;;;;;;5134804;27;20424;-57
2024/03/18 01:09:37;;;;;;;1.58;1.00;;;11.50;36.00;;;;;;5119988;27;20428;-57
2024/03/18 01:12:16;;;;;;;2.10;0.80;;;11.40;58.00;;;;;;5131986;27;20434;-59
2024/03/18 01:14:43;;;;;;;2.10;1.00;;;11.40;51.10;;;;;;5126400;27;20487;-59
2024/03/18 01:17:09;;;;;;;1.80;0.80;;;11.40;55.90;;;;;;5140201;27;20486;-58
2024/03/18 01:19:37;;;;;;;1.63;1.00;;;11.40;49.20;;;;;;5139895;27;20441;-58
2024/03/18 01:22:04;;;;;;;1.90;0.90;;;11.40;48.70;;;;;;5136688;27;20431;-60
2024/03/18 01:24:32;;;;;;;1.42;1.00;;;11.40;34.40;;;;;;5139626;27;20466;-58
2024/03/18 01:27:04;;;;;;;1.90;1.00;;;11.50;29.50;;;;;;5137571;27;20589;-57
2024/03/18 01:29:31;;;;;;;1.73;0.90;;;11.40;21.40;;;;;;5123148;27;20450;-58
2024/03/18 01:31:58;;;;;;;2.42;0.90;;;11.30;34.30;;;;;;5131795;27;20435;-58
2024/03/18 01:34:25;;;;;;;1.75;1.08;;;11.30;43.50;;;;;;5120582;27;20428;-58
2024/03/18 01:36:52;;;;;;;2.00;1.00;;;11.30;43.80;;;;;;5127664;27;20785;-57
2024/03/18 01:39:20;;;;;;;1.60;1.00;;;11.40;38.10;;;;;;5139664;27;20434;-58
2024/03/18 01:41:48;;;;;;;2.10;1.10;;;11.30;52.60;;;;;;5138481;27;20443;-57
2024/03/18 01:44:16;;;;;;;1.50;1.10;;;11.30;54.10;;;;;;5139171;27;20728;-57
2024/03/18 01:46:46;;;;;;;1.90;0.90;;;11.40;56.50;;;;;;5139283;27;20430;-57
2024/03/18 01:49:13;;;;;;;1.73;1.00;;;11.50;52.40;;;;;;5131192;27;20409;-57
2024/03/18 01:51:43;;;;;;;2.20;1.00;;;11.60;41.80;;;;;;5122938;27;20419;-56
2024/03/18 01:54:10;;;;;;;2.00;1.00;;;11.70;20.70;;;;;;5135974;27;20422;-56
2024/03/18 01:56:37;;;;;;;3.20;1.00;;;11.60;13.00;;;;;;5135726;27;20506;-57
2024/03/18 01:59:07;;;;;;;1.60;0.90;;;11.50;24.50;;;;;;5131396;27;20427;-56
2024/03/18 02:01:38;;;;;;;1.73;1.00;;;11.40;29.70;;;;;;5139506;27;20418;-56
2024/03/18 02:04:09;;;;;;;1.60;0.90;;;11.50;40.70;;;;;;5138187;27;20426;-58
2024/03/18 02:06:41;;;;;;;1.50;0.90;;;11.40;43.10;;;;;;5138236;27;20817;-57
2024/03/18 02:09:10;;;;;;;1.90;1.00;;;11.50;41.40;;;;;;5130384;27;20481;-55
2024/03/18 02:11:37;;;;;;;1.60;1.00;;;11.60;41.00;;;;;;5116654;28;20408;-57
2024/03/18 02:14:12;;;;;;;1.73;1.30;;;11.60;36.40;;;;;;5117250;28;20428;-55
2024/03/18 02:16:47;;;;;;;2.40;1.20;;;11.60;43.10;;;;;;5117172;28;20713;-57
2024/03/18 02:19:17;;;;;;;2.10;1.00;;;11.60;42.50;;;;;;5117582;28;20516;-57
2024/03/18 02:21:47;;;;;;;1.70;1.10;;;11.60;40.10;;;;;;5117898;28;20767;-56
2024/03/18 02:24:18;;;;;;;2.60;1.00;;;11.50;47.30;;;;;;5117395;28;20424;-56
2024/03/18 02:26:48;;;;;;;2.00;1.00;;;11.40;53.00;;;;;;5117015;28;20428;-57
2024/03/18 02:29:17;;;;;;;1.70;1.10;;;11.40;48.40;;;;;;5117397;28;20441;-57
2024/03/18 02:31:44;;;;;;;3.20;1.10;;;11.40;58.50;;;;;;5117216;28;20420;-56
2024/03/18 02:34:15;;;;;;;2.70;1.00;;;11.50;61.10;;;;;;5116214;28;20420;-55
2024/03/18 02:36:46;;;;;;;1.90;1.10;;;11.60;59.00;;;;;;5122114;27;20505;-55
2024/03/18 02:41:58;;;;;;;1.60;1.10;;;11.60;26.90;;;;;;5124270;27;20435;-55
2024/03/18 02:44:25;;;;;;;3.03;1.10;;;11.60;23.50;;;;;;5138098;27;20441;-56
2024/03/18 02:46:58;;;;;;;2.20;1.30;;;11.60;17.00;;;;;;5138603;27;20422;-53
2024/03/18 02:49:31;;;;;;;2.50;1.10;;;11.60;11.30;;;;;;5127232;27;20497;-55
2024/03/18 02:51:58;;;;;;;2.10;1.20;;;11.70;14.80;;;;;;5117807;28;20424;-56
2024/03/18 02:54:30;;;;;;;2.53;1.08;;;11.70;11.30;;;;;;5120743;27;20529;-56
2024/03/18 02:56:57;;;;;;;1.80;1.00;;;11.60;8.30;;;;;;5137544;27;20423;-56
2024/03/18 02:59:33;;;;;;;1.40;1.00;;;11.60;22.10;;;;;;5137269;27;20503;-55
2024/03/18 03:02:02;;;;;;;2.10;0.90;;;11.50;37.70;;;;;;5136703;27;20693;-55
2024/03/18 03:04:33;;;;;;;1.80;1.02;;;11.30;50.00;;;;;;5136551;27;20438;-57
2024/03/18 03:07:00;;;;;;;1.30;1.00;;;11.10;79.90;;;;;;5130110;27;20748;-57
2024/03/18 03:09:28;;;;;;;1.60;1.02;;;11.00;99.90;;;;;;5116370;28;20480;-57
2024/03/18 03:11:55;;;;;;;1.90;1.10;;;10.90;99.90;;;;;;5116910;28;20420;-56
2024/03/18 03:14:22;;;;;;;1.80;1.10;;;10.80;99.90;;;;;;5117561;28;20750;-56
2024/03/18 03:16:49;;;;;;;1.80;1.10;;;10.80;99.90;;;;;;5117335;28;20737;-56
2024/03/18 03:19:17;;;;;;;1.40;1.08;;;10.70;99.90;;;;;;5117271;28;20726;-56
2024/03/18 03:21:47;;;;;;;2.57;1.10;;;10.70;99.90;;;;;;5118280;27;20555;-54
2024/03/18 03:24:16;;;;;;;1.50;1.00;;;10.70;99.90;;;;;;5127191;27;20514;-57
2024/03/18 03:26:47;;;;;;;1.45;1.00;;;10.70;99.90;;;;;;5116193;28;20447;-57
2024/03/18 03:29:19;;;;;;;2.90;1.23;;;10.80;99.90;;;;;;5130294;27;20446;-56
2024/03/18 03:31:45;;;;;;;2.10;1.10;;;10.70;99.90;;;;;;5136645;27;20823;-54
2024/03/18 03:34:13;;;;;;;2.20;1.10;;;10.80;99.90;;;;;;5137225;27;20885;-56
2024/03/18 03:36:41;;;;;;;1.73;1.00;;;10.80;99.90;;;;;;5136281;27;20522;-57
2024/03/18 03:39:11;;;;;;;3.13;1.00;;;10.80;99.90;;;;;;5137208;27;20844;-56
2024/03/18 03:41:45;;;;;;;2.10;1.10;;;10.80;99.90;;;;;;5138065;27;20422;-54
2024/03/18 03:44:12;;;;;;;2.67;1.38;;;10.90;99.90;;;;;;5137508;27;20422;-57
2024/03/18 03:46:39;;;;;;;2.03;1.40;;;10.90;99.90;;;;;;5137404;27;20426;-56
2024/03/18 03:49:09;;;;;;;2.28;1.30;;;11.00;99.90;;;;;;5137670;27;20479;-56
2024/03/18 03:51:36;;;;;;;2.00;1.30;;;11.00;99.90;;;;;;5137844;27;20445;-56
2024/03/18 03:54:03;;;;;;;2.10;1.30;;;11.00;99.90;;;;;;5137204;27;20426;-55
2024/03/18 03:56:33;;;;;;;3.22;1.30;;;11.10;99.90;;;;;;5137099;27;20419;-55
2024/03/18 03:59:02;;;;;;;2.60;1.50;;;11.10;72.50;;;;;;5136224;28;20476;-57
2024/03/18 04:01:32;;;;;;;2.13;1.20;;;11.00;72.10;;;;;;5137395;28;20420;-56
2024/03/18 04:04:02;;;;;;;2.90;1.23;;;10.90;90.10;;;;;;5137593;28;20450;-56
2024/03/18 04:06:31;;;;;;;3.13;1.40;;;10.90;95.50;;;;;;5136692;28;20887;-56
2024/03/18 04:08:58;;;;;;;3.20;1.40;;;10.90;94.40;;;;;;5136865;28;20415;-55
2024/03/18 04:11:26;;;;;;;2.17;1.38;;;10.80;99.90;;;;;;5124464;27;20420;-52
2024/03/18 04:13:52;;;;;;;2.40;1.40;;;10.70;99.90;;;;;;5120517;27;20514;-56
2024/03/18 04:16:21;;;;;;;2.20;1.40;;;10.70;99.90;;;;;;5131302;27;20418;-57
2024/03/18 04:18:48;;;;;;;2.60;1.30;;;10.80;99.90;;;;;;5140869;27;20864;-56
2024/03/18 04:21:15;;;;;;;2.58;1.60;;;10.80;99.90;;;;;;5141406;27;20758;-55
2024/03/18 04:23:42;;;;;;;2.92;1.30;;;10.80;99.90;;;;;;5141171;27;20426;-55
2024/03/18 04:26:10;;;;;;;1.50;1.30;;;10.80;99.90;;;;;;5141349;27;20422;-57
2024/03/18 04:28:37;;;;;;;2.60;1.10;;;10.90;99.90;;;;;;5139308;27;20434;-55
2024/03/18 04:31:11;;;;;;;1.67;1.20;;;11.00;99.90;;;;;;5134185;27;20473;-56
2024/03/18 04:33:43;;;;;;;4.55;1.30;;;11.10;99.90;;;;;;5134841;27;20422;-56
2024/03/18 04:36:13;;;;;;;2.10;1.50;;;11.10;99.90;;;;;;5139344;27;20812;-56
2024/03/18 04:38:40;;;;;;;3.38;1.30;;;11.00;99.90;;;;;;5120485;28;20740;-56
2024/03/18 04:41:15;;;;;;;2.28;1.20;;;10.90;99.90;;;;;;5120659;28;20424;-57
2024/03/18 04:43:48;;;;;;;1.50;1.00;;;10.90;99.90;;;;;;5120147;28;20457;-56
2024/03/18 04:46:18;;;;;;;2.03;1.10;;;10.90;99.90;;;;;;5120731;28;20842;-54
2024/03/18 04:48:47;;;;;;;1.90;1.00;;;10.80;99.90;;;;;;5119855;28;20487;-57
2024/03/18 04:51:15;;;;;;;2.50;1.00;;;10.90;99.90;;;;;;5137039;27;20429;-55
2024/03/18 04:53:42;;;;;;;3.60;1.10;;;10.90;99.90;;;;;;5141119;27;20792;-53
2024/03/18 04:56:09;;;;;;;3.90;1.10;;;10.90;99.90;;;;;;5130333;27;20420;-56
2024/03/18 04:58:39;;;;;;;1.50;1.00;;;11.00;99.90;;;;;;5136887;27;20419;-56
2024/03/18 05:01:06;;;;;;;2.20;1.00;;;11.10;99.90;;;;;;5136489;27;20423;-54
2024/03/18 05:03:34;;;;;;;2.80;1.20;;;11.30;99.90;;;;;;5119923;28;20802;-57
2024/03/18 05:06:03;;;;;;;1.70;1.00;;;11.30;99.90;;;;;;5119345;28;20783;-55
2024/03/18 05:08:32;;;;;;;2.20;1.00;;;11.40;99.90;;;;;;5138944;27;20418;-56
2024/03/18 05:10:59;;;;;;;2.50;1.10;;;11.40;99.90;;;;;;5129294;27;20904;-55
2024/03/18 05:13:26;;;;;;;2.50;1.40;;;11.30;99.90;;;;;;5138352;27;20545;-57
2024/03/18 05:15:56;;;;;;;2.28;1.08;;;11.30;99.90;;;;;;5132752;27;20725;-56
2024/03/18 05:18:23;;;;;;;2.20;1.10;;;11.20;99.90;;;;;;5139705;27;20418;-58
2024/03/18 05:20:50;;;;;;;2.70;1.10;;;11.10;99.90;;;;;;5134184;27;20432;-54
2024/03/18 05:23:24;;;;;;;2.10;1.10;;;11.00;99.90;;;;;;5117339;28;20509;-56
2024/03/18 05:25:56;;;;;;;1.50;1.30;;;11.00;99.90;;;;;;5118544;28;20431;-54
2024/03/18 05:28:23;;;;;;;1.90;1.20;;;11.00;99.90;;;;;;5118821;28;20412;-54
2024/03/18 05:30:50;;;;;;;2.20;1.20;;;10.90;99.90;;;;;;5128826;27;20426;-57
2024/03/18 05:33:17;;;;;;;1.67;1.10;;;10.90;99.90;;;;;;5134815;27;20483;-56
2024/03/18 05:35:47;;;;;;;1.90;1.20;;;10.80;99.90;;;;;;5129762;27;20870;-57
2024/03/18 05:38:18;;;;;;;2.90;1.60;;;10.80;99.90;;;;;;5139427;27;20430;-55
2024/03/18 05:40:46;;;;;;;1.60;1.23;;;10.80;99.90;;;;;;5139311;27;20476;-56
2024/03/18 05:43:16;;;;;;;2.00;1.20;;;10.70;99.90;;;;;;5138894;27;20792;-58
2024/03/18 05:45:46;;;;;;;3.10;1.10;;;10.70;99.90;;;;;;5139419;27;20418;-57
2024/03/18 05:48:24;;;;;;;3.40;1.40;;;10.70;99.90;;;;;;5138884;27;20808;-57
2024/03/18 05:50:55;;;;;;;3.45;1.33;;;10.70;99.90;;;;;;5139320;27;20411;-56
2024/03/18 05:53:22;;;;;;;2.70;1.27;;;10.80;99.90;;;;;;5138525;27;20759;-53
2024/03/18 05:55:50;;;;;;;2.00;0.90;;;10.90;99.90;;;;;;5139776;27;20479;-55
2024/03/18 05:58:17;;;;;;;2.03;1.20;;;11.10;99.90;;;;;;5139430;27;20434;-55
2024/03/18 06:00:50;;;;;;;2.50;1.20;;;11.20;99.90;;;;;;5139108;27;20433;-53
2024/03/18 06:03:18;;;;;;;1.95;1.00;;;11.10;99.90;;;;;;5138826;27;20426;-53
2024/03/18 06:05:45;;;;;;;1.60;1.00;;;11.20;99.90;;;;;;5134536;27;20448;-50
2024/03/18 06:08:13;;;;;;;2.30;1.10;;;11.30;99.90;;;;;;5123611;27;20428;-54
2024/03/18 06:10:40;;;;;;;1.90;1.20;;;11.30;99.90;;;;;;5117980;27;20420;-54
2024/03/18 06:15:55;;;;;;;2.60;1.02;;;11.30;99.90;;;;;;5123694;27;20421;-57
2024/03/18 06:18:22;;;;;;;1.45;1.00;;;11.20;99.90;;;;;;5135912;27;20415;-55
2024/03/18 06:20:53;;;;;;;1.48;1.00;;;11.20;99.90;;;;;;5136983;27;20444;-56
2024/03/18 06:23:25;;;;;;;1.97;1.10;;;11.10;99.90;;;;;;5119653;27;20466;-54
2024/03/18 06:26:08;;;;;;;3.20;1.20;;;11.00;99.90;;;;;;5118988;28;20470;-54
2024/03/18 06:28:40;;;;;;;2.00;0.90;;;11.00;99.90;;;;;;5130456;27;20464;-55
2024/03/18 06:31:11;;;;;;;2.07;1.10;;;11.20;99.90;;;;;;5118525;27;20458;-54
2024/03/18 06:33:43;;;;;;;1.77;1.10;;;11.40;99.90;;;;;;5115510;28;20472;-55
2024/03/18 06:36:26;;;;;;;1.60;1.10;;;11.50;99.90;;;;;;5119466;27;20424;-50
2024/03/18 06:39:17;;;;;;;2.30;1.10;;;11.50;99.90;;;;;;5128437;27;20748;-54
2024/03/18 06:41:44;;;;;;;2.20;1.20;;;11.40;99.90;;;;;;5128371;27;20418;-51
2024/03/18 06:44:15;;;;;;;1.90;1.00;;;11.30;99.90;;;;;;5117258;28;20481;-51
2024/03/18 06:46:42;;;;;;;2.90;0.90;;;11.40;99.90;;;;;;5123100;27;20727;-51
2024/03/18 06:49:09;;;;;;;1.30;0.90;;;11.50;99.90;;;;;;5137659;27;20430;-53
2024/03/18 06:51:39;;;;;;;1.80;1.00;;;11.60;99.90;;;;;;5137755;27;20422;-53
2024/03/18 06:54:06;;;;;;;2.10;1.30;;;11.80;99.90;;;;;;5137803;27;20467;-54
2024/03/18 06:56:33;;;;;;;2.35;1.10;;;11.90;99.90;;;;;;5137693;27;20419;-48
2024/03/18 06:59:00;;;;;;;2.38;1.10;;;11.70;99.90;;;;;;5129653;27;20435;-53
2024/03/18 07:01:28;;;;;;;1.60;1.20;;;11.60;99.90;;;;;;5116518;28;20442;-53
2024/03/18 07:03:58;;;;;;;1.60;1.00;;;11.40;99.90;;;;;;5110242;28;20419;-51
2024/03/18 07:06:25;;;;;;;2.13;1.20;;;11.20;99.90;;;;;;5129022;27;20506;-55
2024/03/18 07:08:52;;;;;;;3.97;1.20;;;11.10;99.90;;;;;;5137614;27;20450;-52
2024/03/18 07:14:03;;;;;;;2.15;1.20;;;11.00;99.90;;;;;;5128054;27;20431;-55
2024/03/18 07:16:47;;;;;;;2.90;1.20;;;11.00;99.90;;;;;;5127139;27;21000;-55
2024/03/18 07:19:16;;;;;;;1.60;0.93;;;11.00;99.90;;;;;;5122008;27;20519;-55
2024/03/18 07:21:43;;;;;;;2.90;1.10;;;11.00;99.90;;;;;;5119521;27;20832;-55
2024/03/18 07:24:11;;;;;;;1.35;1.00;;;11.00;99.90;;;;;;5117972;27;20447;-55
2024/03/18 07:26:41;;;;;;;1.50;1.00;;;11.00;99.90;;;;;;5116056;28;20793;-54
2024/03/18 07:29:17;;;;;;;1.90;1.05;;;11.20;99.90;;;;;;5115614;27;20426;-56
2024/03/18 07:31:44;;;;;;;1.50;1.00;;;11.20;99.90;;;;;;5124650;27;20428;-55
2024/03/18 07:34:13;;;;;;;2.92;0.90;;;11.10;99.90;;;;;;5117576;27;20436;-53
2024/03/18 07:36:42;;;;;;;2.00;1.10;;;11.00;99.90;;;;;;5121631;27;20442;-54
2024/03/18 07:39:09;;;;;;;1.60;0.90;;;10.90;99.90;;;;;;5115567;27;20435;-51
2024/03/18 07:41:39;;;;;;;4.55;1.00;;;10.80;99.90;;;;;;5117598;27;20477;-53
2024/03/18 07:44:06;;;;;;;2.95;1.10;;;10.80;99.90;;;;;;5116078;28;20436;-50
2024/03/18 07:46:36;;;;;;;1.70;1.30;;;10.70;99.90;;;;;;5120746;27;20445;-50
2024/03/18 07:49:03;;;;;;;3.25;1.65;;;10.60;99.90;;;;;;5123870;27;20437;-50
2024/03/18 07:51:32;;;;;;;2.20;1.42;;;10.50;99.90;;;;;;5133320;27;20430;-50
2024/03/18 07:54:07;;;;;;;1.90;1.23;;;10.50;99.90;;;;;;5132618;27;20434;-52
2024/03/18 07:56:34;;;;;;;2.90;1.40;;;10.50;99.90;;;;;;5128880;27;20440;-49
2024/03/18 07:59:01;;;;;;;2.67;1.23;;;10.50;99.90;;;;;;5128594;27;20473;-51
2024/03/18 08:01:28;;;;;;;3.22;1.30;;;10.40;99.90;;;;;;5127297;28;20513;-48
2024/03/18 08:03:55;;;;;;;4.35;1.20;;;10.40;99.90;;;;;;5134904;28;20442;-55
2024/03/18 08:06:22;;;;;;;2.25;1.40;;;10.30;99.90;;;;;;5131891;28;20434;-53
2024/03/18 08:08:50;;;;;;;3.85;1.90;;;10.30;99.90;;;;;;5127523;28;20458;-50
2024/03/18 08:11:18;;;;;;;2.33;1.30;;;10.40;99.90;;;;;;5115870;28;20538;-49
2024/03/18 08:13:48;;;;;;;2.90;1.40;;;10.40;99.90;;;;;;5122519;28;20424;-50
2024/03/18 08:16:16;;;;;;;3.78;1.20;;;10.30;99.90;;;;;;5120350;28;20846;-51
2024/03/18 08:18:43;;;;;;;2.33;1.10;;;10.20;99.90;;;;;;5111588;28;20438;-55
2024/03/18 08:21:12;;;;;;;2.28;1.00;;;10.20;99.90;;;;;;5119697;28;20834;-55
2024/03/18 08:23:39;;;;;;;2.65;1.27;;;10.30;99.90;;;;;;5119921;28;20441;-55
2024/03/18 08:26:08;;;;;;;2.97;1.67;;;10.30;99.90;;;;;;5115316;28;20432;-51
2024/03/18 08:28:35;;;;;;;2.40;1.30;;;10.30;99.90;;;;;;5114582;28;20436;-54
2024/03/18 08:31:02;;;;;;;2.80;1.40;;;10.40;99.90;;;;;;5117084;28;20791;-53
2024/03/18 08:33:29;;;;;;;2.40;1.20;;;10.50;99.90;;;;;;5118303;28;20487;-56
2024/03/18 08:39:02;;;;;;;2.00;1.17;;;10.50;99.90;;;;;;5107653;28;20426;-56
2024/03/18 08:41:30;;;;;;;2.30;1.20;;;10.50;99.90;;;;;;5115197;28;20446;-57
2024/03/18 08:43:57;;;;;;;1.60;1.10;;;10.70;99.90;;;;;;5115434;28;20451;-56
2024/03/18 08:46:24;;;;;;;1.30;1.00;;;10.80;99.90;;;;;;5115889;28;20914;-55
2024/03/18 08:48:51;;;;;;;1.50;1.00;;;10.80;99.90;;;;;;5118336;28;20432;-55
2024/03/18 08:51:18;;;;;;;1.90;1.10;;;10.70;99.90;;;;;;5120565;28;20690;-53
2024/03/18 08:53:46;;;;;;;2.03;1.02;;;10.70;99.90;;;;;;5125152;28;20822;-54
2024/03/18 08:56:13;;;;;;;2.08;0.95;;;10.80;99.90;;;;;;5123556;28;20709;-53
2024/03/18 08:58:42;;;;;;;1.30;0.90;;;11.00;99.90;;;;;;5121903;27;20432;-54
2024/03/18 09:01:09;;;;;;;1.98;0.95;;;11.30;99.90;;;;;;5121600;27;20908;-50
2024/03/18 09:03:37;;;;;;;1.70;0.80;;;11.50;99.90;;;;;;5121742;27;20488;-50
2024/03/18 09:06:04;;;;;;;2.00;0.80;;;11.80;99.90;;;;;;5133189;27;20432;-53
2024/03/18 09:08:31;;;;;;;1.60;0.80;;;11.90;99.90;;;;;;5130101;27;20418;-48
2024/03/18 09:10:59;;;;;;;2.40;0.90;;;12.00;99.90;;;;;;5131964;27;20417;-50
2024/03/18 09:13:26;;;;;;;1.58;0.80;;;12.30;99.90;;;;;;5120808;27;20412;-54
2024/03/18 09:15:54;;;;;;;2.17;0.90;;;12.30;99.90;;;;;;5118218;27;20420;-54
2024/03/18 09:18:21;;;;;;;1.60;0.90;;;12.30;99.90;;;;;;5117651;27;20423;-56
2024/03/18 09:20:51;;;;;;;1.90;0.90;;;12.40;99.90;;;;;;5118958;27;20484;-54
2024/03/18 09:23:18;;;;;;;1.40;0.80;;;12.10;99.90;;;;;;5108773;28;20458;-56
2024/03/18 09:25:45;;;;;;;1.77;0.80;;;12.10;99.90;;;;;;5133200;27;20418;-55
2024/03/18 09:28:13;;;;;;;2.03;0.80;;;12.10;99.90;;;;;;5138979;27;20422;-55
2024/03/18 09:30:40;;;;;;;1.50;0.70;;;11.90;99.90;;;;;;5124410;27;20664;-55
2024/03/18 09:33:08;;;;;;;2.33;0.70;;;11.90;99.90;;;;;;5132810;27;20889;-55
2024/03/18 09:35:35;;;;;;;1.58;0.90;;;12.20;99.90;;;;;;5130542;27;20427;-55
2024/03/18 09:38:02;;;;;;;1.20;0.70;;;12.30;99.90;;;;;;5124286;27;20420;-56
2024/03/18 09:40:30;;;;;;;1.40;0.80;;;12.40;99.90;;;;;;5123514;27;20428;-55
2024/03/18 09:42:58;;;;;;;8.25;5.68;;;12.50;99.90;;;;;;5124129;27;20420;-52
2024/03/18 09:45:25;;;;;;;3.20;1.20;;;12.60;99.90;;;;;;5135564;27;20479;-55
2024/03/18 09:47:53;;;;;;;2.67;1.00;;;12.70;99.90;;;;;;5125724;27;20430;-53
2024/03/18 09:50:21;;;;;;;1.40;0.85;;;12.80;99.90;;;;;;5137159;27;20432;-54
2024/03/18 09:52:50;;;;;;;2.90;0.85;;;12.90;99.90;;;;;;5138181;27;20460;-56
2024/03/18 09:55:22;;;;;;;1.90;1.00;;;12.60;99.90;;;;;;5138049;27;20414;-64
2024/03/18 09:57:49;;;;;;;1.40;0.75;;;12.30;99.90;;;;;;5138564;27;20521;-58
2024/03/18 10:00:19;;;;;;;2.90;0.70;;;12.30;99.90;;;;;;5138567;27;20419;-58
2024/03/18 10:02:46;;;;;;;1.70;0.80;;;12.40;99.90;;;;;;5137120;27;20625;-58
2024/03/18 10:05:13;;;;;;;1.00;0.70;;;12.40;99.90;;;;;;5137420;27;20434;-58
2024/03/18 10:07:44;;;;;;;3.40;0.80;;;12.20;99.90;;;;;;5131051;27;20416;-56
2024/03/18 10:10:16;;;;;;;1.00;0.70;;;12.00;99.90;;;;;;5137358;27;20422;-58
2024/03/18 10:12:44;;;;;;;1.00;0.70;;;12.30;99.90;;;;;;5137337;27;20520;-58
2024/03/18 10:15:12;;;;;;;3.38;0.80;;;12.40;99.90;;;;;;5138304;27;20680;-58
2024/03/18 10:17:41;;;;;;;1.30;0.70;;;12.40;99.90;;;;;;5129273;27;20431;-58
2024/03/18 10:20:18;;;;;;;1.58;0.70;;;12.30;99.90;;;;;;5127122;27;20420;-59
2024/03/18 10:22:47;;;;;;;1.52;0.80;;;12.30;99.90;;;;;;5126898;27;20424;-59
2024/03/18 10:25:16;;;;;;;1.85;0.70;;;12.40;99.90;;;;;;5115662;27;20770;-59
2024/03/18 10:27:43;;;;;;;1.40;0.80;;;12.50;99.90;;;;;;5124558;27;20427;-59
2024/03/18 10:30:13;;;;;;;1.70;0.70;;;12.70;99.90;;;;;;5128698;27;20754;-59
2024/03/18 10:32:42;;;;;;;1.35;0.70;;;12.70;99.90;;;;;;5134640;27;20420;-59
2024/03/18 10:35:19;;;;;;;1.50;0.80;;;12.70;99.90;;;;;;5136337;27;20708;-59
2024/03/18 10:37:54;;;;;;;1.00;0.70;;;12.70;99.90;;;;;;5135392;27;20457;-59
2024/03/18 10:40:34;;;;;;;1.75;0.60;;;12.70;99.90;;;;;;5133183;27;20850;-59
2024/03/18 10:43:02;;;;;;;1.35;0.65;;;12.50;99.90;;;;;;5129029;27;20437;-59
2024/03/18 10:45:31;;;;;;;0.98;0.70;;;12.20;99.90;;;;;;5135087;27;20440;-59
2024/03/18 10:48:01;;;;;;;1.50;0.60;;;12.10;99.90;;;;;;5137338;27;20824;-59
2024/03/18 10:50:29;;;;;;;1.60;0.70;;;12.30;99.90;;;;;;5137287;27;20418;-59
2024/03/18 10:52:58;;;;;;;1.40;0.60;;;12.50;99.90;;;;;;5121904;27;20435;-59
2024/03/18 10:55:26;;;;;;;1.70;0.60;;;12.70;99.90;;;;;;5124567;27;20423;-58
2024/03/18 10:57:55;;;;;;;1.58;0.60;;;12.80;99.90;;;;;;5128904;27;20422;-59
2024/03/18 11:00:23;;;;;;;1.27;0.60;;;13.00;99.90;;;;;;5134335;27;20442;-59
2024/03/18 11:02:58;;;;;;;1.00;0.70;;;13.10;99.90;;;;;;5135343;27;20762;-59
2024/03/18 11:05:29;;;;;;;1.17;0.60;;;13.10;99.90;;;;;;5133740;27;20441;-59
2024/03/18 11:07:59;;;;;;;1.35;0.50;;;13.10;99.90;;;;;;5132383;27;20743;-59
2024/03/18 11:10:29;;;;;;;1.38;0.60;;;13.20;99.90;;;;;;5119807;27;20451;-57
2024/03/18 11:13:06;;;;;;;1.20;0.60;;;13.10;99.90;;;;;;5123617;27;20695;-58
2024/03/18 11:15:33;;;;;;;2.43;0.60;;;12.90;99.90;;;;;;5125553;27;20418;-58
2024/03/18 11:18:06;;;;;;;1.37;0.70;;;13.00;99.90;;;;;;5115634;28;20489;-58
2024/03/18 11:20:45;;;;;;;2.10;0.77;;;12.80;99.90;;;;;;5127812;27;20486;-58
2024/03/18 11:23:17;;;;;;;1.50;0.70;;;12.70;99.90;;;;;;5125510;27;20426;-58
2024/03/18 11:25:45;;;;;;;1.65;0.70;;;12.60;99.90;;;;;;5121233;27;20408;-58
2024/03/18 11:28:12;;;;;;;2.08;0.70;;;12.50;99.90;;;;;;5124310;27;20432;-58
2024/03/18 11:30:42;;;;;;;1.13;0.60;;;12.40;99.90;;;;;;5118876;27;20741;-59
2024/03/18 11:33:11;;;;;;;1.77;0.70;;;12.50;99.90;;;;;;5109852;28;20427;-58
2024/03/18 11:35:39;;;;;;;1.00;0.70;;;12.40;99.90;;;;;;5115653;27;20447;-59
2024/03/18 11:38:07;;;;;;;1.10;0.60;;;12.50;99.90;;;;;;5120934;27;20803;-60
2024/03/18 11:40:39;;;;;;;1.20;0.70;;;12.60;99.90;;;;;;5122969;27;20478;-58
2024/03/18 11:43:07;;;;;;;1.35;0.80;;;12.60;99.90;;;;;;5126246;27;20732;-58
2024/03/18 11:45:34;;;;;;;2.40;0.60;;;12.60;99.90;;;;;;5135914;27;20418;-57
2024/03/18 11:48:04;;;;;;;1.40;0.70;;;12.80;99.90;;;;;;5135383;27;20415;-57
2024/03/18 11:50:33;;;;;;;1.15;0.70;;;13.00;99.90;;;;;;5137565;27;20798;-58
2024/03/18 11:53:03;;;;;;;1.77;0.70;;;12.90;99.90;;;;;;5136109;27;20849;-58
2024/03/18 11:55:32;;;;;;;1.30;0.73;;;12.90;99.90;;;;;;5136233;27;20421;-59
2024/03/18 11:58:02;;;;;;;1.50;0.70;;;12.80;99.90;;;;;;5124314;27;20841;-58
2024/03/18 12:00:32;;;;;;;1.40;0.80;;;12.80;99.90;;;;;;5117093;27;20458;-57
2024/03/18 12:03:01;;;;;;;1.50;0.80;;;12.80;99.90;;;;;;5118140;28;20683;-57
2024/03/18 12:05:28;;;;;;;1.70;1.00;;;12.80;99.90;;;;;;5118642;28;20420;-57
2024/03/18 12:07:55;;;;;;;2.10;1.05;;;12.80;99.90;;;;;;5134711;28;20402;-57
2024/03/18 12:10:24;;;;;;;1.70;1.00;;;12.60;99.90;;;;;;5135525;28;20685;-56
2024/03/18 12:12:51;;;;;;;1.25;0.90;;;12.60;99.90;;;;;;5136569;28;20418;-57
2024/03/18 12:15:21;;;;;;;2.33;1.00;;;12.60;99.90;;;;;;5136161;28;20433;-57
2024/03/18 12:17:49;;;;;;;1.83;1.00;;;12.60;99.90;;;;;;5134862;28;20434;-56
2024/03/18 12:20:22;;;;;;;2.13;0.93;;;12.60;99.90;;;;;;5134022;28;20769;-57
2024/03/18 12:22:58;;;;;;;1.60;0.80;;;12.60;99.90;;;;;;5135715;28;20423;-55
2024/03/18 12:31:01;;;;;;;0.80;0.50;;;12.40;99.90;;;;;;5135822;28;20445;-56
2024/03/18 12:33:30;;;;;;;0.80;0.50;;;12.40;99.90;;;;;;5139697;27;20815;-54
2024/03/18 12:35:58;;;;;;;1.30;0.50;;;12.50;99.90;;;;;;5131959;27;20521;-54
2024/03/18 12:38:28;;;;;;;0.70;0.50;;;12.60;99.90;;;;;;5139486;27;20430;-55
2024/03/18 12:40:55;;;;;;;1.00;0.40;;;12.70;99.90;;;;;;5137546;27;20754;-56
2024/03/18 12:43:22;;;;;;;1.10;0.40;;;12.90;99.90;;;;;;5139034;27;20426;-55
2024/03/18 12:45:49;;;;;;;0.90;0.40;;;12.90;99.90;;;;;;5139863;27;20418;-53
2024/03/18 12:48:17;;;;;;;0.80;0.40;;;12.90;99.90;;;;;;5138791;27;20433;-55
2024/03/18 12:50:46;;;;;;;0.70;0.40;;;13.10;99.90;;;;;;5134207;27;20834;-58
2024/03/18 12:53:13;;;;;;;0.60;0.40;;;13.00;99.90;;;;;;5119427;27;20598;-56
2024/03/18 12:55:40;;;;;;;0.50;0.30;;;13.00;99.90;;;;;;5139101;27;20510;-57
2024/03/18 12:58:08;;;;;;;1.50;0.40;;;13.10;99.90;;;;;;5136790;27;20430;-55
2024/03/18 13:00:35;;;;;;;1.80;0.30;;;13.20;99.90;;;;;;5138863;27;20490;-56
2024/03/18 13:03:04;;;;;;;0.50;0.30;;;13.00;99.90;;;;;;5138734;27;20499;-57
2024/03/18 13:05:32;;;;;;;0.50;0.30;;;12.90;99.90;;;;;;5139068;27;20429;-57
2024/03/18 13:08:00;;;;;;;1.80;0.30;;;13.10;99.90;;;;;;5139125;27;20430;-57
2024/03/18 13:10:29;;;;;;;1.38;0.30;;;13.30;99.90;;;;;;5138607;27;20499;-56
2024/03/18 13:12:56;;;;;;;1.00;0.30;;;13.50;99.90;;;;;;5139820;27;20422;-55
2024/03/18 13:15:23;;;;;;;0.60;0.30;;;13.60;99.90;;;;;;5133354;27;20427;-58
2024/03/18 13:17:50;;;;;;;0.57;0.30;;;13.70;99.90;;;;;;5119086;28;20485;-58